Terminal Aerodrome Forecast
Issued by NWS

Home | Current Version | Previous Version | Text Only | Print | Product List | Glossary On
Versions: 1 2 3 4 5 6 7 8 9 10 11 12 13 14 15 16 17 18 19 20 21 22 23 24 25 26 27 28 29 30 31
000
FTUS41 KGYX 302320
TAFLEB
TAF
KLEB 302320Z 0100/0124 VRB03KT P6SM VCSH SCT040 OVC060
     FM010300 00000KT 5SM BR OVC060
     FM011000 17005KT 3SM -RA BR OVC010 PROB30 0115/0121 3SM -TSRA
      OVC010CB=

USA.gov is the U.S. government's official web portal to all federal, state and local government web resources and services.